createdAt,value
2023-01-18T00:00:32.613Z,7.60
2023-01-18T00:02:59.626Z,7.70
2023-01-18T00:05:26.401Z,8.90
2023-01-18T00:07:53.536Z,8.10
2023-01-18T00:10:21.334Z,9.73
2023-01-18T00:12:49.608Z,9.85
2023-01-18T00:15:17.249Z,12.18
2023-01-18T00:17:53.575Z,8.95
2023-01-18T00:20:24.227Z,11.93
2023-01-18T00:22:52.661Z,12.30
2023-01-18T00:25:21.972Z,12.35
2023-01-18T00:27:51.835Z,12.40
2023-01-18T00:30:21.499Z,14.07
2023-01-18T00:32:50.065Z,15.93
2023-01-18T00:35:17.052Z,16.30
2023-01-18T00:37:45.688Z,18.73
2023-01-18T00:40:12.945Z,17.25
2023-01-18T00:42:59.845Z,17.50
2023-01-18T00:45:27.833Z,17.60
2023-01-18T00:47:55.120Z,19.67
2023-01-18T00:50:22.949Z,18.02
2023-01-18T00:52:51.069Z,18.65
2023-01-18T00:55:18.803Z,17.85
2023-01-18T00:57:46.446Z,17.10
2023-01-18T01:00:17.172Z,20.75
2023-01-18T01:02:44.391Z,18.50
2023-01-18T01:05:37.372Z,18.65
2023-01-18T01:08:06.348Z,18.90
2023-01-18T01:10:35.202Z,17.63
2023-01-18T01:13:21.265Z,17.73
2023-01-18T01:16:07.060Z,17.67
2023-01-18T01:18:52.775Z,19.25
2023-01-18T01:21:38.403Z,20.20
2023-01-18T01:24:24.509Z,18.08
2023-01-18T01:26:51.482Z,17.27
2023-01-18T01:29:18.865Z,16.65
2023-01-18T01:31:46.065Z,15.70
2023-01-18T01:34:13.499Z,15.95
2023-01-18T01:36:40.808Z,15.52
2023-01-18T01:39:11.304Z,15.95
2023-01-18T01:41:38.717Z,15.63
2023-01-18T01:44:20.819Z,14.30
2023-01-18T01:46:51.134Z,13.30
2023-01-18T01:49:24.134Z,13.47
2023-01-18T01:51:55.776Z,12.52
2023-01-18T01:54:27.141Z,11.52
2023-01-18T01:57:00.117Z,12.55
2023-01-18T01:59:27.283Z,12.68
2023-01-18T02:01:54.826Z,12.55
2023-01-18T02:04:22.327Z,12.52
2023-01-18T02:06:48.916Z,11.98
2023-01-18T02:09:16.556Z,12.67
2023-01-18T02:11:44.340Z,13.20
2023-01-18T02:14:16.759Z,10.45
2023-01-18T02:16:43.819Z,13.70
2023-01-18T02:19:48.412Z,10.70
2023-01-18T02:25:06.005Z,9.53
2023-01-18T02:27:49.069Z,10.65
2023-01-18T02:30:35.131Z,9.63
2023-01-18T02:33:06.279Z,8.57
2023-01-18T02:35:53.040Z,9.47
2023-01-18T02:38:25.785Z,9.07
2023-01-18T02:41:51.679Z,8.37
2023-01-18T02:44:56.387Z,8.27
2023-01-18T02:49:51.256Z,7.67
2023-01-18T02:52:47.728Z,7.88
2023-01-18T02:55:25.656Z,7.57
2023-01-18T02:57:57.453Z,6.53
2023-01-18T03:00:26.117Z,6.32
2023-01-18T03:02:55.401Z,5.40
2023-01-18T03:05:25.401Z,6.37
2023-01-18T03:08:14.725Z,5.95
2023-01-18T03:11:01.010Z,5.40
2023-01-18T03:13:37.187Z,5.50
2023-01-18T03:16:21.744Z,5.10
2023-01-18T03:19:37.892Z,5.13
2023-01-18T03:22:06.765Z,5.25
2023-01-18T03:24:41.503Z,4.88
2023-01-18T03:27:28.545Z,5.00
2023-01-18T03:30:14.728Z,4.72
2023-01-18T03:33:01.539Z,5.75
2023-01-18T03:35:30.507Z,4.80
2023-01-18T03:37:59.978Z,5.60
2023-01-18T03:40:30.681Z,5.75
2023-01-18T03:43:11.855Z,6.07
2023-01-18T03:45:41.279Z,4.88
2023-01-18T03:48:09.877Z,5.38
2023-01-18T03:50:45.945Z,5.40
2023-01-18T03:53:17.384Z,4.63
2023-01-18T03:55:50.708Z,5.75
2023-01-18T03:58:22.980Z,5.05
2023-01-18T04:00:52.622Z,5.13
2023-01-18T04:03:20.069Z,4.95
2023-01-18T04:05:47.673Z,5.78
2023-01-18T04:08:15.889Z,4.50
2023-01-18T04:10:43.119Z,4.28
2023-01-18T04:13:10.326Z,3.90
2023-01-18T04:15:36.904Z,4.13
2023-01-18T04:18:04.573Z,3.55
2023-01-18T04:20:31.725Z,3.20
2023-01-18T04:22:59.329Z,3.20
2023-01-18T04:25:27.476Z,2.75
2023-01-18T04:27:54.796Z,3.72
2023-01-18T04:30:22.314Z,2.80
2023-01-18T04:32:49.837Z,2.80
2023-01-18T04:35:17.331Z,2.50
2023-01-18T04:37:44.087Z,2.43
2023-01-18T04:40:11.937Z,2.38
2023-01-18T04:42:38.521Z,2.65
2023-01-18T04:45:14.195Z,2.38
2023-01-18T04:47:40.785Z,2.13
2023-01-18T04:50:08.392Z,2.45
2023-01-18T04:52:34.935Z,2.78
2023-01-18T04:55:01.558Z,2.10
2023-01-18T04:57:28.312Z,2.20
2023-01-18T04:59:54.920Z,1.77
2023-01-18T05:02:21.677Z,2.22
2023-01-18T05:04:48.301Z,2.03
2023-01-18T05:07:14.820Z,2.47
2023-01-18T05:09:41.445Z,2.97
2023-01-18T05:12:08.147Z,2.17
2023-01-18T05:14:34.723Z,1.97
2023-01-18T05:17:01.281Z,2.10
2023-01-18T05:19:30.555Z,2.03
2023-01-18T05:21:57.198Z,1.93
2023-01-18T05:24:23.861Z,2.47
2023-01-18T05:26:50.467Z,2.30
2023-01-18T05:29:17.971Z,2.58
2023-01-18T05:31:44.740Z,2.30
2023-01-18T05:34:11.356Z,3.07
2023-01-18T05:36:37.886Z,4.03
2023-01-18T05:39:04.493Z,4.43
2023-01-18T05:41:31.027Z,5.50
2023-01-18T05:43:57.593Z,6.50
2023-01-18T05:46:24.380Z,5.70
2023-01-18T05:48:50.941Z,7.50
2023-01-18T05:51:17.553Z,7.47
2023-01-18T05:53:44.156Z,7.30
2023-01-18T05:56:11.820Z,8.53
2023-01-18T05:58:39.108Z,7.40
2023-01-18T06:01:07.833Z,7.30
2023-01-18T06:03:35.121Z,7.07
2023-01-18T06:06:01.932Z,7.57
2023-01-18T06:08:28.610Z,6.80
2023-01-18T06:10:56.996Z,6.93
2023-01-18T06:13:25.041Z,6.87
2023-01-18T06:15:52.235Z,6.60
2023-01-18T06:18:18.890Z,7.27
2023-01-18T06:20:45.569Z,6.23
2023-01-18T06:23:12.505Z,6.80
2023-01-18T06:25:39.233Z,6.43
2023-01-18T06:28:06.467Z,6.43
2023-01-18T06:30:34.636Z,6.33
2023-01-18T06:33:06.884Z,6.47
2023-01-18T06:35:34.481Z,7.30
2023-01-18T06:38:01.415Z,6.87
2023-01-18T06:40:28.420Z,7.07
2023-01-18T06:42:55.063Z,5.50
2023-01-18T06:45:22.822Z,6.97
2023-01-18T06:47:50.352Z,6.70
2023-01-18T06:50:18.433Z,6.27
2023-01-18T06:52:45.549Z,6.90
2023-01-18T06:55:14.287Z,6.27
2023-01-18T06:57:42.476Z,5.93
2023-01-18T07:00:12.171Z,6.32
2023-01-18T07:02:40.338Z,6.13
2023-01-18T07:05:07.171Z,5.53
2023-01-18T07:07:34.870Z,5.33
2023-01-18T07:10:02.448Z,5.37
2023-01-18T07:12:29.867Z,7.60
2023-01-18T07:14:57.981Z,7.37
2023-01-18T07:17:24.511Z,5.00
2023-01-18T07:19:52.113Z,5.90
2023-01-18T07:22:19.542Z,5.10
2023-01-18T07:24:46.435Z,5.22
2023-01-18T07:27:13.456Z,5.00
2023-01-18T07:29:40.911Z,140.82
2023-01-18T07:32:08.376Z,20.13
2023-01-18T07:34:36.004Z,25.43
2023-01-18T07:37:02.624Z,5.80
2023-01-18T07:39:29.168Z,14.13
2023-01-18T07:41:56.281Z,5.07
2023-01-18T07:44:24.047Z,4.20
2023-01-18T07:46:50.831Z,4.43
2023-01-18T07:49:17.614Z,5.13
2023-01-18T07:51:45.408Z,5.27
2023-01-18T07:54:13.328Z,4.78
2023-01-18T07:56:40.367Z,5.03
2023-01-18T07:59:07.049Z,4.50
2023-01-18T08:01:33.665Z,4.20
2023-01-18T08:04:00.360Z,4.30
2023-01-18T08:06:27.731Z,3.92
2023-01-18T08:08:56.774Z,4.22
2023-01-18T08:11:24.847Z,3.90
2023-01-18T08:13:52.895Z,4.40
2023-01-18T08:16:20.498Z,4.03
2023-01-18T08:18:52.168Z,34.47
2023-01-18T08:21:18.944Z,6.53
2023-01-18T08:23:46.589Z,35.28
2023-01-18T08:26:15.146Z,11.80
2023-01-18T08:28:41.870Z,4.90
2023-01-18T08:31:20.366Z,4.28
2023-01-18T08:33:48.888Z,5.65
2023-01-18T08:36:19.654Z,4.82
2023-01-18T08:38:53.326Z,4.60
2023-01-18T08:43:51.195Z,5.43
2023-01-18T08:46:18.467Z,5.93
2023-01-18T08:48:44.984Z,4.43
2023-01-18T08:51:11.771Z,3.60
2023-01-18T08:53:39.061Z,4.50
2023-01-18T08:56:09.533Z,4.75
2023-01-18T08:58:36.141Z,3.95
2023-01-18T09:01:09.567Z,6.05
2023-01-18T09:03:37.167Z,9.18
2023-01-18T09:06:08.542Z,6.90
2023-01-18T09:08:36.299Z,5.22
2023-01-18T09:11:08.744Z,5.70
2023-01-18T09:13:35.532Z,5.38
2023-01-18T09:16:10.787Z,5.50
2023-01-18T09:18:38.350Z,5.55
2023-01-18T09:21:07.655Z,5.82
2023-01-18T09:23:35.930Z,6.07
2023-01-18T09:26:05.321Z,6.32
2023-01-18T09:28:34.179Z,7.15
2023-01-18T09:31:02.856Z,6.15
2023-01-18T09:33:37.562Z,6.55
2023-01-18T09:36:10.144Z,7.20
2023-01-18T09:38:38.492Z,6.77
2023-01-18T09:41:23.114Z,6.20
2023-01-18T09:43:53.885Z,6.45
2023-01-18T09:46:23.218Z,9.35
2023-01-18T09:48:55.933Z,6.95
2023-01-18T09:51:28.180Z,6.38
2023-01-18T09:54:24.711Z,7.03
2023-01-18T09:57:03.877Z,21.40
2023-01-18T10:00:00.709Z,7.87
2023-01-18T10:02:40.340Z,6.82
2023-01-18T10:05:15.912Z,6.47
2023-01-18T10:08:02.454Z,8.93
2023-01-18T10:10:39.352Z,9.95
2023-01-18T10:13:28.780Z,12.20
2023-01-18T10:15:56.657Z,13.13
2023-01-18T10:18:25.191Z,12.60
2023-01-18T10:20:57.905Z,11.50
2023-01-18T10:24:02.253Z,12.50
2023-01-18T10:26:36.024Z,14.13
2023-01-18T10:29:17.195Z,17.95
2023-01-18T10:32:09.562Z,19.20
2023-01-18T10:34:42.816Z,21.65
2023-01-18T10:37:42.758Z,22.73
2023-01-18T10:40:13.116Z,20.58
2023-01-18T10:42:47.923Z,28.67
2023-01-18T10:45:20.398Z,20.45
2023-01-18T10:47:52.047Z,23.00
2023-01-18T10:50:50.996Z,26.90
2023-01-18T10:53:40.820Z,29.47
2023-01-18T10:56:10.156Z,24.45
2023-01-18T10:58:40.118Z,23.93
2023-01-18T11:01:15.461Z,21.48
2023-01-18T11:03:49.109Z,22.37
2023-01-18T11:06:20.736Z,30.17
2023-01-18T11:08:51.104Z,22.00
2023-01-18T11:11:45.673Z,16.88
2023-01-18T11:14:32.188Z,21.37
2023-01-18T11:17:11.996Z,20.00
2023-01-18T11:19:39.474Z,17.88
2023-01-18T11:22:16.681Z,18.23
2023-01-18T11:24:43.613Z,17.23
2023-01-18T11:27:21.765Z,21.48
2023-01-18T11:29:49.701Z,17.50
2023-01-18T11:32:17.808Z,18.35
2023-01-18T11:34:49.592Z,20.48
2023-01-18T11:37:37.200Z,31.20
2023-01-18T11:40:19.751Z,30.02
2023-01-18T11:42:49.704Z,17.30
2023-01-18T11:45:37.915Z,15.30
2023-01-18T11:48:14.256Z,21.25
2023-01-18T11:50:44.956Z,14.10
2023-01-18T11:53:24.157Z,17.67
2023-01-18T11:56:06.015Z,15.35
2023-01-18T11:58:35.172Z,17.13
2023-01-18T12:01:26.477Z,14.63
2023-01-18T12:04:11.882Z,14.25
2023-01-18T12:06:57.528Z,14.75
2023-01-18T12:09:46.704Z,20.25
2023-01-18T12:12:31.753Z,13.90
2023-01-18T12:15:25.885Z,15.30
2023-01-18T12:18:17.592Z,19.75
2023-01-18T12:21:05.823Z,16.27
2023-01-18T12:23:53.990Z,14.70
2023-01-18T12:26:45.314Z,9.85
2023-01-18T12:29:57.370Z,9.23
2023-01-18T12:32:45.408Z,8.80
2023-01-18T12:35:24.683Z,8.13
2023-01-18T12:37:52.255Z,8.13
2023-01-18T12:41:11.220Z,6.95
2023-01-18T12:43:56.219Z,5.88
2023-01-18T12:46:28.583Z,7.18
2023-01-18T12:49:04.720Z,6.75
2023-01-18T12:51:35.623Z,7.22
2023-01-18T12:54:02.161Z,8.35
2023-01-18T12:56:46.361Z,9.70
2023-01-18T12:59:20.541Z,8.63
2023-01-18T13:02:16.199Z,8.32
2023-01-18T13:04:50.243Z,8.80
2023-01-18T13:07:22.174Z,7.88
2023-01-18T13:09:50.655Z,7.35
2023-01-18T13:12:19.019Z,7.18
2023-01-18T13:14:48.412Z,6.63
2023-01-18T13:17:24.518Z,7.28
2023-01-18T13:20:00.865Z,8.25
2023-01-18T13:22:54.976Z,7.72
2023-01-18T13:25:29.653Z,7.20
2023-01-18T13:28:02.739Z,7.97
2023-01-18T13:30:47.170Z,6.25
2023-01-18T13:33:15.432Z,7.88
2023-01-18T13:35:53.601Z,13.90
2023-01-18T13:38:40.818Z,9.45
2023-01-18T13:41:13.325Z,7.60
2023-01-18T13:43:41.429Z,8.23
2023-01-18T13:46:08.991Z,9.27
2023-01-18T13:49:03.212Z,9.00
2023-01-18T13:51:42.110Z,9.23
2023-01-18T13:54:18.135Z,8.82
2023-01-18T13:57:18.241Z,8.30
2023-01-18T13:59:49.535Z,7.28
2023-01-18T14:02:42.720Z,7.35
2023-01-18T14:05:43.284Z,7.38
2023-01-18T14:08:21.875Z,8.88
2023-01-18T14:10:53.722Z,5.70
2023-01-18T14:13:48.532Z,5.20
2023-01-18T14:16:18.440Z,5.63
2023-01-18T14:19:19.725Z,13.10
2023-01-18T14:22:28.115Z,6.70
2023-01-18T14:25:22.254Z,6.30
2023-01-18T14:28:04.183Z,5.85
2023-01-18T14:30:35.476Z,6.38
2023-01-18T14:33:18.634Z,7.82
2023-01-18T14:35:58.461Z,6.45
2023-01-18T14:38:26.585Z,8.40
2023-01-18T14:40:59.545Z,7.47
2023-01-18T14:43:43.087Z,6.28
2023-01-18T14:46:29.939Z,6.38
2023-01-18T14:48:58.372Z,7.53
2023-01-18T14:51:29.037Z,9.52
2023-01-18T14:54:00.963Z,9.45
2023-01-18T14:56:40.098Z,7.93
2023-01-18T14:59:22.154Z,11.80
2023-01-18T15:01:58.940Z,9.48
2023-01-18T15:04:28.330Z,8.63
2023-01-18T15:07:03.908Z,9.43
2023-01-18T15:09:38.579Z,9.77
2023-01-18T15:12:09.992Z,11.77
2023-01-18T15:14:41.417Z,10.18
2023-01-18T15:17:26.989Z,11.73
2023-01-18T15:19:57.947Z,23.77
2023-01-18T15:22:33.203Z,13.63
2023-01-18T15:25:01.254Z,10.65
2023-01-18T15:27:34.287Z,12.70
2023-01-18T15:30:02.561Z,12.68
2023-01-18T15:32:31.586Z,10.68
2023-01-18T15:35:00.593Z,13.98
2023-01-18T15:37:30.813Z,12.68
2023-01-18T15:39:57.823Z,11.02
2023-01-18T15:42:39.090Z,12.90
2023-01-18T15:45:18.063Z,13.02
2023-01-18T15:47:50.572Z,15.37
2023-01-18T15:50:47.016Z,13.90
2023-01-18T15:53:23.847Z,14.30
2023-01-18T15:55:54.656Z,16.80
2023-01-18T15:58:40.323Z,16.75
2023-01-18T16:01:08.210Z,18.20
2023-01-18T16:03:39.143Z,17.53
2023-01-18T16:06:13.864Z,19.73
2023-01-18T16:09:19.986Z,20.47
2023-01-18T16:12:00.744Z,21.50
2023-01-18T16:14:38.478Z,19.67
2023-01-18T16:17:06.027Z,21.00
2023-01-18T16:20:02.243Z,20.40
2023-01-18T16:22:38.692Z,19.10
2023-01-18T16:25:21.564Z,20.40
2023-01-18T16:27:49.808Z,21.48
2023-01-18T16:30:23.532Z,21.48
2023-01-18T16:35:21.802Z,23.13
2023-01-18T16:37:49.928Z,23.30
2023-01-18T16:40:22.191Z,22.50
2023-01-18T16:43:02.751Z,23.25
2023-01-18T16:45:36.368Z,25.05
2023-01-18T16:50:32.634Z,25.35
2023-01-18T16:53:00.120Z,22.77
2023-01-18T16:55:27.605Z,22.45
2023-01-18T16:57:54.746Z,23.55
2023-01-18T17:00:26.615Z,25.10
2023-01-18T17:02:54.346Z,23.43
2023-01-18T17:05:21.616Z,24.02
2023-01-18T17:07:48.443Z,23.50
2023-01-18T17:10:37.819Z,24.15
2023-01-18T17:13:04.820Z,23.30
2023-01-18T17:15:35.845Z,23.40
2023-01-18T17:18:04.366Z,24.27
2023-01-18T17:20:32.149Z,25.10
2023-01-18T17:23:00.077Z,25.13
2023-01-18T17:25:27.314Z,25.92
2023-01-18T17:27:56.823Z,27.02
2023-01-18T17:30:23.673Z,25.98
2023-01-18T17:32:51.783Z,25.92
2023-01-18T17:35:24.537Z,25.92
2023-01-18T17:38:00.742Z,26.08
2023-01-18T17:40:40.074Z,25.60
2023-01-18T17:43:32.134Z,25.88
2023-01-18T17:46:02.990Z,27.77
2023-01-18T17:48:30.094Z,29.30
2023-01-18T17:50:56.675Z,30.15
2023-01-18T17:53:24.136Z,29.50
2023-01-18T17:55:50.730Z,28.92
2023-01-18T17:58:17.305Z,27.25
2023-01-18T18:00:45.503Z,31.75
2023-01-18T18:03:12.517Z,29.83
2023-01-18T18:05:39.852Z,27.00
2023-01-18T18:08:08.375Z,26.25
2023-01-18T18:10:35.343Z,27.02
2023-01-18T18:13:02.353Z,27.73
2023-01-18T18:15:29.010Z,29.33
2023-01-18T18:17:56.173Z,26.08
2023-01-18T18:20:22.991Z,27.50
2023-01-18T18:22:49.994Z,29.85
2023-01-18T18:25:17.508Z,32.38
2023-01-18T18:27:47.152Z,27.77
2023-01-18T18:30:17.701Z,30.65
2023-01-18T18:32:45.511Z,30.48
2023-01-18T18:35:24.269Z,26.90
2023-01-18T18:37:54.346Z,27.75
2023-01-18T18:40:22.196Z,27.80
2023-01-18T18:43:04.678Z,27.83
2023-01-18T18:45:32.149Z,30.88
2023-01-18T18:48:00.799Z,28.55
2023-01-18T18:50:28.163Z,29.48
2023-01-18T18:52:55.742Z,31.83
2023-01-18T18:55:23.055Z,29.17
2023-01-18T18:57:50.063Z,30.33
2023-01-18T19:00:18.093Z,26.98
2023-01-18T19:02:44.805Z,25.77
2023-01-18T19:05:12.222Z,27.90
2023-01-18T19:07:39.534Z,26.77
2023-01-18T19:10:07.307Z,26.60
2023-01-18T19:12:34.261Z,27.63
2023-01-18T19:15:01.509Z,28.13
2023-01-18T19:17:31.099Z,26.98
2023-01-18T19:19:59.638Z,25.85
2023-01-18T19:22:26.407Z,23.48
2023-01-18T19:24:53.948Z,26.85
2023-01-18T19:27:22.069Z,25.70
2023-01-18T19:29:49.378Z,29.25
2023-01-18T19:32:16.787Z,24.45
2023-01-18T19:34:43.617Z,25.20
2023-01-18T19:37:11.190Z,24.20
2023-01-18T19:39:38.717Z,40.67
2023-01-18T19:42:07.437Z,26.95
2023-01-18T19:44:34.889Z,26.92
2023-01-18T19:47:01.589Z,23.40
2023-01-18T19:49:28.321Z,23.85
2023-01-18T19:51:56.503Z,24.27
2023-01-18T19:54:24.124Z,22.45
2023-01-18T19:56:51.882Z,25.08
2023-01-18T19:59:18.483Z,25.60
2023-01-18T20:01:45.281Z,27.75
2023-01-18T20:04:13.478Z,21.92
2023-01-18T20:06:43.259Z,23.23
2023-01-18T20:09:26.990Z,25.30
2023-01-18T20:11:57.204Z,20.38
2023-01-18T20:14:30.692Z,21.08
2023-01-18T20:17:00.271Z,23.88
2023-01-18T20:19:27.390Z,25.23
2023-01-18T20:21:56.284Z,22.67
2023-01-18T20:24:22.990Z,20.40
2023-01-18T20:26:50.641Z,21.02
2023-01-18T20:29:17.993Z,20.80
2023-01-18T20:31:50.046Z,25.88
2023-01-18T20:34:16.921Z,19.40
2023-01-18T20:36:46.480Z,21.63
2023-01-18T20:39:13.967Z,22.67
2023-01-18T20:41:40.817Z,21.30
2023-01-18T20:44:08.683Z,40.45
2023-01-18T20:46:36.020Z,32.58
2023-01-18T20:49:04.069Z,27.75
2023-01-18T20:51:32.349Z,23.02
2023-01-18T20:53:59.081Z,30.05
2023-01-18T20:56:29.711Z,27.98
2023-01-18T20:58:58.164Z,27.58
2023-01-18T21:01:32.287Z,24.63
2023-01-18T21:04:01.925Z,28.42
2023-01-18T21:06:29.338Z,25.27
2023-01-18T21:08:57.052Z,26.00
2023-01-18T21:11:25.540Z,23.65
2023-01-18T21:13:56.299Z,26.10
2023-01-18T21:16:23.628Z,27.20
2023-01-18T21:18:53.253Z,27.58
2023-01-18T21:21:20.279Z,26.63
2023-01-18T21:23:47.985Z,35.25
2023-01-18T21:26:15.561Z,29.83
2023-01-18T21:28:43.035Z,30.45
2023-01-18T21:31:10.594Z,130.65
2023-01-18T21:33:38.337Z,45.00
2023-01-18T21:36:13.800Z,48.30
2023-01-18T21:38:40.712Z,54.22
2023-01-18T21:41:26.664Z,37.15
2023-01-18T21:44:12.836Z,29.33
2023-01-18T21:46:45.949Z,34.53
2023-01-18T21:49:47.087Z,30.35
2023-01-18T21:52:37.628Z,39.60
2023-01-18T21:55:04.507Z,32.53
2023-01-18T21:57:31.366Z,30.55
2023-01-18T21:59:58.100Z,27.85
2023-01-18T22:02:24.891Z,29.08
2023-01-18T22:05:00.853Z,30.40
2023-01-18T22:07:30.137Z,31.65
2023-01-18T22:10:06.049Z,30.88
2023-01-18T22:12:35.794Z,30.25
2023-01-18T22:15:06.515Z,46.42
2023-01-18T22:17:33.156Z,36.00
2023-01-18T22:20:00.237Z,33.63
2023-01-18T22:22:27.337Z,31.10
2023-01-18T22:24:54.181Z,34.03
2023-01-18T22:27:20.735Z,53.35
2023-01-18T22:29:47.345Z,86.15
2023-01-18T22:32:13.906Z,45.97
2023-01-18T22:34:40.554Z,34.10
2023-01-18T22:37:07.182Z,34.20
2023-01-18T22:39:33.729Z,71.90
2023-01-18T22:42:00.264Z,35.20
2023-01-18T22:44:26.808Z,63.20
2023-01-18T22:46:53.469Z,59.83
2023-01-18T22:49:20.130Z,67.78
2023-01-18T22:51:46.663Z,43.95
2023-01-18T22:54:13.354Z,44.85
2023-01-18T22:56:39.863Z,41.33
2023-01-18T22:59:06.475Z,36.33
2023-01-18T23:01:36.237Z,40.92
2023-01-18T23:04:06.313Z,38.88
2023-01-18T23:06:45.756Z,49.95
2023-01-18T23:09:14.461Z,79.65
2023-01-18T23:11:41.631Z,41.08
2023-01-18T23:14:26.715Z,39.88
2023-01-18T23:17:11.868Z,51.80
2023-01-18T23:19:38.539Z,39.05
2023-01-18T23:22:07.305Z,39.70
2023-01-18T23:24:35.710Z,41.75
2023-01-18T23:27:03.576Z,38.88
2023-01-18T23:29:30.412Z,35.42
2023-01-18T23:31:57.659Z,35.58
2023-01-18T23:34:25.097Z,43.35
2023-01-18T23:36:52.215Z,42.35
2023-01-18T23:39:37.132Z,42.35
2023-01-18T23:42:22.232Z,42.90
2023-01-18T23:45:07.155Z,69.55
2023-01-18T23:47:53.641Z,40.72
2023-01-18T23:50:38.583Z,39.35
2023-01-18T23:53:23.516Z,31.15
2023-01-18T23:55:53.076Z,33.13
2023-01-18T23:58:19.743Z,32.92
